sensor_id;sensor_type;location;lat;lon;timestamp;P1;durP1;ratioP1;P2;durP2;ratioP2
23506;SDS011;11930;53.076;18.250;2023-06-14T00:00:52;8.30;;;4.75;;
23506;SDS011;11930;53.076;18.250;2023-06-14T00:03:38;6.97;;;4.78;;
23506;SDS011;11930;53.076;18.250;2023-06-14T00:06:04;6.05;;;4.38;;
23506;SDS011;11930;53.076;18.250;2023-06-14T00:08:30;8.23;;;4.60;;
23506;SDS011;11930;53.076;18.250;2023-06-14T00:10:56;6.85;;;4.55;;
23506;SDS011;11930;53.076;18.250;2023-06-14T00:13:22;7.45;;;4.80;;
23506;SDS011;11930;53.076;18.250;2023-06-14T00:15:48;7.97;;;5.30;;
23506;SDS011;11930;53.076;18.250;2023-06-14T00:18:14;6.43;;;4.63;;
23506;SDS011;11930;53.076;18.250;2023-06-14T00:20:41;6.32;;;4.68;;
23506;SDS011;11930;53.076;18.250;2023-06-14T00:23:08;7.75;;;4.85;;
23506;SDS011;11930;53.076;18.250;2023-06-14T00:25:34;6.72;;;4.60;;
23506;SDS011;11930;53.076;18.250;2023-06-14T00:28:00;7.40;;;5.00;;
23506;SDS011;11930;53.076;18.250;2023-06-14T00:30:27;7.63;;;4.78;;
23506;SDS011;11930;53.076;18.250;2023-06-14T00:32:56;5.22;;;4.10;;
23506;SDS011;11930;53.076;18.250;2023-06-14T00:35:24;8.98;;;4.93;;
23506;SDS011;11930;53.076;18.250;2023-06-14T00:37:51;7.43;;;4.57;;
23506;SDS011;11930;53.076;18.250;2023-06-14T00:40:17;7.32;;;4.80;;
23506;SDS011;11930;53.076;18.250;2023-06-14T00:42:45;7.18;;;5.18;;
23506;SDS011;11930;53.076;18.250;2023-06-14T00:45:10;9.73;;;5.03;;
23506;SDS011;11930;53.076;18.250;2023-06-14T00:47:37;8.43;;;4.95;;
23506;SDS011;11930;53.076;18.250;2023-06-14T00:50:08;8.25;;;5.07;;
23506;SDS011;11930;53.076;18.250;2023-06-14T00:52:35;7.63;;;5.00;;
23506;SDS011;11930;53.076;18.250;2023-06-14T00:55:02;7.50;;;4.95;;
23506;SDS011;11930;53.076;18.250;2023-06-14T00:57:29;8.57;;;4.82;;
23506;SDS011;11930;53.076;18.250;2023-06-14T00:59:55;7.90;;;5.10;;
23506;SDS011;11930;53.076;18.250;2023-06-14T01:02:21;8.02;;;5.07;;
23506;SDS011;11930;53.076;18.250;2023-06-14T01:04:48;8.32;;;5.70;;
23506;SDS011;11930;53.076;18.250;2023-06-14T01:12:31;8.77;;;5.25;;
23506;SDS011;11930;53.076;18.250;2023-06-14T01:14:59;8.88;;;5.72;;
23506;SDS011;11930;53.076;18.250;2023-06-14T01:17:26;9.57;;;5.97;;
23506;SDS011;11930;53.076;18.250;2023-06-14T01:19:58;10.02;;;6.18;;
23506;SDS011;11930;53.076;18.250;2023-06-14T01:22:26;10.23;;;6.03;;
23506;SDS011;11930;53.076;18.250;2023-06-14T01:24:54;7.82;;;5.90;;
23506;SDS011;11930;53.076;18.250;2023-06-14T01:27:24;9.98;;;5.35;;
23506;SDS011;11930;53.076;18.250;2023-06-14T01:29:54;7.65;;;6.00;;
23506;SDS011;11930;53.076;18.250;2023-06-14T01:32:25;8.85;;;6.28;;
23506;SDS011;11930;53.076;18.250;2023-06-14T01:34:55;8.43;;;6.37;;
23506;SDS011;11930;53.076;18.250;2023-06-14T01:37:22;6.45;;;5.63;;
23506;SDS011;11930;53.076;18.250;2023-06-14T01:39:48;7.43;;;5.63;;
23506;SDS011;11930;53.076;18.250;2023-06-14T01:42:18;8.02;;;5.80;;
23506;SDS011;11930;53.076;18.250;2023-06-14T01:44:45;9.20;;;6.10;;
23506;SDS011;11930;53.076;18.250;2023-06-14T01:47:13;9.57;;;6.28;;
23506;SDS011;11930;53.076;18.250;2023-06-14T01:49:41;7.00;;;5.72;;
23506;SDS011;11930;53.076;18.250;2023-06-14T01:52:10;9.27;;;6.33;;
23506;SDS011;11930;53.076;18.250;2023-06-14T01:54:36;9.68;;;6.07;;
23506;SDS011;11930;53.076;18.250;2023-06-14T01:57:07;8.63;;;6.38;;
23506;SDS011;11930;53.076;18.250;2023-06-14T01:59:33;8.00;;;6.13;;
23506;SDS011;11930;53.076;18.250;2023-06-14T02:02:02;8.43;;;6.57;;
23506;SDS011;11930;53.076;18.250;2023-06-14T02:04:30;8.18;;;6.28;;
23506;SDS011;11930;53.076;18.250;2023-06-14T02:06:57;9.63;;;7.20;;
23506;SDS011;11930;53.076;18.250;2023-06-14T02:09:22;10.60;;;6.60;;
23506;SDS011;11930;53.076;18.250;2023-06-14T02:11:49;10.93;;;7.07;;
23506;SDS011;11930;53.076;18.250;2023-06-14T02:14:15;10.57;;;7.90;;
23506;SDS011;11930;53.076;18.250;2023-06-14T02:16:42;11.33;;;6.87;;
23506;SDS011;11930;53.076;18.250;2023-06-14T02:19:17;9.67;;;7.17;;
23506;SDS011;11930;53.076;18.250;2023-06-14T02:21:44;9.25;;;7.47;;
23506;SDS011;11930;53.076;18.250;2023-06-14T02:24:12;7.73;;;6.93;;
23506;SDS011;11930;53.076;18.250;2023-06-14T02:26:39;9.27;;;6.93;;
23506;SDS011;11930;53.076;18.250;2023-06-14T02:29:06;8.80;;;7.05;;
23506;SDS011;11930;53.076;18.250;2023-06-14T02:31:36;10.63;;;7.53;;
23506;SDS011;11930;53.076;18.250;2023-06-14T02:34:03;10.50;;;7.07;;
23506;SDS011;11930;53.076;18.250;2023-06-14T02:36:30;10.97;;;7.47;;
23506;SDS011;11930;53.076;18.250;2023-06-14T02:38:56;10.23;;;6.95;;
23506;SDS011;11930;53.076;18.250;2023-06-14T02:41:25;10.43;;;7.57;;
23506;SDS011;11930;53.076;18.250;2023-06-14T02:43:52;8.00;;;6.53;;
23506;SDS011;11930;53.076;18.250;2023-06-14T02:46:19;10.50;;;6.57;;
23506;SDS011;11930;53.076;18.250;2023-06-14T02:48:51;11.07;;;6.47;;
23506;SDS011;11930;53.076;18.250;2023-06-14T02:51:17;10.70;;;7.10;;
23506;SDS011;11930;53.076;18.250;2023-06-14T02:53:43;11.37;;;6.67;;
23506;SDS011;11930;53.076;18.250;2023-06-14T02:56:10;11.43;;;6.97;;
23506;SDS011;11930;53.076;18.250;2023-06-14T02:58:37;11.27;;;6.97;;
23506;SDS011;11930;53.076;18.250;2023-06-14T03:01:05;12.00;;;6.70;;
23506;SDS011;11930;53.076;18.250;2023-06-14T03:03:33;10.03;;;6.63;;
23506;SDS011;11930;53.076;18.250;2023-06-14T03:05:59;12.20;;;7.13;;
23506;SDS011;11930;53.076;18.250;2023-06-14T03:08:31;11.68;;;6.70;;
23506;SDS011;11930;53.076;18.250;2023-06-14T03:11:07;10.47;;;6.90;;
23506;SDS011;11930;53.076;18.250;2023-06-14T03:13:35;11.87;;;7.47;;
23506;SDS011;11930;53.076;18.250;2023-06-14T03:16:03;12.30;;;7.80;;
23506;SDS011;11930;53.076;18.250;2023-06-14T03:18:32;11.60;;;7.20;;
23506;SDS011;11930;53.076;18.250;2023-06-14T03:21:02;10.40;;;6.80;;
23506;SDS011;11930;53.076;18.250;2023-06-14T03:23:29;12.10;;;7.03;;
23506;SDS011;11930;53.076;18.250;2023-06-14T03:25:56;10.90;;;6.15;;
23506;SDS011;11930;53.076;18.250;2023-06-14T03:28:22;8.17;;;6.17;;
23506;SDS011;11930;53.076;18.250;2023-06-14T03:30:50;9.47;;;6.30;;
23506;SDS011;11930;53.076;18.250;2023-06-14T03:33:16;10.50;;;6.47;;
23506;SDS011;11930;53.076;18.250;2023-06-14T03:35:43;12.57;;;6.70;;
23506;SDS011;11930;53.076;18.250;2023-06-14T03:38:09;10.80;;;6.40;;
23506;SDS011;11930;53.076;18.250;2023-06-14T03:40:36;8.97;;;6.00;;
23506;SDS011;11930;53.076;18.250;2023-06-14T03:43:03;10.53;;;6.37;;
23506;SDS011;11930;53.076;18.250;2023-06-14T03:45:29;11.47;;;6.43;;
23506;SDS011;11930;53.076;18.250;2023-06-14T03:47:57;11.18;;;6.53;;
23506;SDS011;11930;53.076;18.250;2023-06-14T03:50:24;11.20;;;5.97;;
23506;SDS011;11930;53.076;18.250;2023-06-14T03:52:50;8.90;;;6.60;;
23506;SDS011;11930;53.076;18.250;2023-06-14T03:55:17;9.53;;;6.53;;
23506;SDS011;11930;53.076;18.250;2023-06-14T03:57:44;9.93;;;6.50;;
23506;SDS011;11930;53.076;18.250;2023-06-14T04:00:14;8.50;;;6.23;;
23506;SDS011;11930;53.076;18.250;2023-06-14T04:02:40;11.63;;;6.57;;
23506;SDS011;11930;53.076;18.250;2023-06-14T04:05:08;10.93;;;6.93;;
23506;SDS011;11930;53.076;18.250;2023-06-14T04:07:37;11.83;;;6.60;;
23506;SDS011;11930;53.076;18.250;2023-06-14T04:10:05;11.43;;;7.33;;
23506;SDS011;11930;53.076;18.250;2023-06-14T04:12:33;11.45;;;7.05;;
23506;SDS011;11930;53.076;18.250;2023-06-14T04:14:59;11.83;;;7.63;;
23506;SDS011;11930;53.076;18.250;2023-06-14T04:17:28;10.87;;;7.13;;
23506;SDS011;11930;53.076;18.250;2023-06-14T04:19:54;11.67;;;6.80;;
23506;SDS011;11930;53.076;18.250;2023-06-14T04:22:20;10.60;;;7.35;;
23506;SDS011;11930;53.076;18.250;2023-06-14T04:24:47;9.40;;;7.30;;
23506;SDS011;11930;53.076;18.250;2023-06-14T04:27:14;9.45;;;7.53;;
23506;SDS011;11930;53.076;18.250;2023-06-14T04:29:47;11.10;;;6.97;;
23506;SDS011;11930;53.076;18.250;2023-06-14T04:32:19;11.50;;;7.60;;
23506;SDS011;11930;53.076;18.250;2023-06-14T04:34:45;11.65;;;8.05;;
23506;SDS011;11930;53.076;18.250;2023-06-14T04:37:11;10.13;;;7.28;;
23506;SDS011;11930;53.076;18.250;2023-06-14T04:39:41;14.10;;;8.10;;
23506;SDS011;11930;53.076;18.250;2023-06-14T04:42:07;11.77;;;7.45;;
23506;SDS011;11930;53.076;18.250;2023-06-14T04:44:37;11.13;;;7.97;;
23506;SDS011;11930;53.076;18.250;2023-06-14T04:47:05;11.30;;;7.15;;
23506;SDS011;11930;53.076;18.250;2023-06-14T04:49:32;10.80;;;7.68;;
23506;SDS011;11930;53.076;18.250;2023-06-14T04:51:59;11.02;;;7.80;;
23506;SDS011;11930;53.076;18.250;2023-06-14T04:54:47;12.00;;;7.50;;
23506;SDS011;11930;53.076;18.250;2023-06-14T04:57:18;10.57;;;7.47;;
23506;SDS011;11930;53.076;18.250;2023-06-14T04:59:49;12.85;;;7.57;;
23506;SDS011;11930;53.076;18.250;2023-06-14T05:02:21;10.32;;;7.43;;
23506;SDS011;11930;53.076;18.250;2023-06-14T05:04:49;10.18;;;7.65;;
23506;SDS011;11930;53.076;18.250;2023-06-14T05:07:16;9.13;;;6.72;;
23506;SDS011;11930;53.076;18.250;2023-06-14T05:09:42;14.05;;;6.63;;
23506;SDS011;11930;53.076;18.250;2023-06-14T05:12:09;11.70;;;6.95;;
23506;SDS011;11930;53.076;18.250;2023-06-14T05:14:36;9.23;;;6.18;;
23506;SDS011;11930;53.076;18.250;2023-06-14T05:17:04;8.48;;;5.78;;
23506;SDS011;11930;53.076;18.250;2023-06-14T05:19:30;9.93;;;5.57;;
23506;SDS011;11930;53.076;18.250;2023-06-14T05:21:56;9.02;;;6.03;;
23506;SDS011;11930;53.076;18.250;2023-06-14T05:24:23;7.95;;;5.55;;
23506;SDS011;11930;53.076;18.250;2023-06-14T05:26:49;10.30;;;5.75;;
23506;SDS011;11930;53.076;18.250;2023-06-14T05:29:15;10.48;;;6.28;;
23506;SDS011;11930;53.076;18.250;2023-06-14T05:31:41;10.00;;;6.28;;
23506;SDS011;11930;53.076;18.250;2023-06-14T05:34:07;11.35;;;6.30;;
23506;SDS011;11930;53.076;18.250;2023-06-14T05:36:33;8.95;;;6.47;;
23506;SDS011;11930;53.076;18.250;2023-06-14T05:39:01;10.38;;;6.65;;
23506;SDS011;11930;53.076;18.250;2023-06-14T05:41:28;10.88;;;6.60;;
23506;SDS011;11930;53.076;18.250;2023-06-14T05:43:55;9.48;;;6.13;;
23506;SDS011;11930;53.076;18.250;2023-06-14T05:46:22;10.52;;;6.75;;
23506;SDS011;11930;53.076;18.250;2023-06-14T05:48:51;11.18;;;5.75;;
23506;SDS011;11930;53.076;18.250;2023-06-14T05:51:18;11.20;;;6.20;;
23506;SDS011;11930;53.076;18.250;2023-06-14T05:53:45;8.43;;;6.15;;
23506;SDS011;11930;53.076;18.250;2023-06-14T05:56:11;10.98;;;6.28;;
23506;SDS011;11930;53.076;18.250;2023-06-14T05:58:38;14.80;;;6.57;;
23506;SDS011;11930;53.076;18.250;2023-06-14T06:01:04;11.82;;;6.40;;
23506;SDS011;11930;53.076;18.250;2023-06-14T06:03:32;11.85;;;6.28;;
23506;SDS011;11930;53.076;18.250;2023-06-14T06:05:59;9.98;;;6.43;;
23506;SDS011;11930;53.076;18.250;2023-06-14T06:08:26;11.40;;;6.88;;
23506;SDS011;11930;53.076;18.250;2023-06-14T06:10:52;11.15;;;6.93;;
23506;SDS011;11930;53.076;18.250;2023-06-14T06:13:18;10.27;;;6.18;;
23506;SDS011;11930;53.076;18.250;2023-06-14T06:15:44;9.57;;;6.32;;
23506;SDS011;11930;53.076;18.250;2023-06-14T06:18:11;9.68;;;6.30;;
23506;SDS011;11930;53.076;18.250;2023-06-14T06:20:37;10.30;;;6.30;;
23506;SDS011;11930;53.076;18.250;2023-06-14T06:23:03;10.90;;;6.25;;
23506;SDS011;11930;53.076;18.250;2023-06-14T06:25:29;10.45;;;6.10;;
23506;SDS011;11930;53.076;18.250;2023-06-14T06:27:57;8.75;;;6.10;;
23506;SDS011;11930;53.076;18.250;2023-06-14T06:30:23;11.52;;;6.22;;
23506;SDS011;11930;53.076;18.250;2023-06-14T06:32:50;9.20;;;5.80;;
23506;SDS011;11930;53.076;18.250;2023-06-14T06:35:17;11.25;;;6.40;;
23506;SDS011;11930;53.076;18.250;2023-06-14T06:37:43;13.23;;;6.90;;
23506;SDS011;11930;53.076;18.250;2023-06-14T06:40:09;10.10;;;6.70;;
23506;SDS011;11930;53.076;18.250;2023-06-14T06:42:36;11.02;;;6.53;;
23506;SDS011;11930;53.076;18.250;2023-06-14T06:45:04;10.35;;;6.72;;
23506;SDS011;11930;53.076;18.250;2023-06-14T06:47:30;9.95;;;7.25;;
23506;SDS011;11930;53.076;18.250;2023-06-14T06:49:56;11.30;;;6.80;;
23506;SDS011;11930;53.076;18.250;2023-06-14T06:52:23;11.10;;;7.60;;
23506;SDS011;11930;53.076;18.250;2023-06-14T06:54:48;13.70;;;7.88;;
23506;SDS011;11930;53.076;18.250;2023-06-14T06:57:16;17.52;;;8.32;;
23506;SDS011;11930;53.076;18.250;2023-06-14T06:59:41;15.02;;;7.95;;
23506;SDS011;11930;53.076;18.250;2023-06-14T07:02:08;14.15;;;8.38;;
23506;SDS011;11930;53.076;18.250;2023-06-14T07:04:34;10.13;;;7.60;;
23506;SDS011;11930;53.076;18.250;2023-06-14T07:07:00;14.52;;;7.60;;
23506;SDS011;11930;53.076;18.250;2023-06-14T07:09:26;12.40;;;7.95;;
23506;SDS011;11930;53.076;18.250;2023-06-14T07:11:52;13.32;;;7.80;;
23506;SDS011;11930;53.076;18.250;2023-06-14T07:14:18;13.55;;;8.25;;
23506;SDS011;11930;53.076;18.250;2023-06-14T07:16:45;12.90;;;7.75;;
23506;SDS011;11930;53.076;18.250;2023-06-14T07:19:12;12.68;;;8.30;;
23506;SDS011;11930;53.076;18.250;2023-06-14T07:21:38;14.35;;;8.52;;
23506;SDS011;11930;53.076;18.250;2023-06-14T07:24:05;12.63;;;7.40;;
23506;SDS011;11930;53.076;18.250;2023-06-14T07:26:32;15.23;;;8.27;;
23506;SDS011;11930;53.076;18.250;2023-06-14T07:28:58;13.20;;;7.72;;
23506;SDS011;11930;53.076;18.250;2023-06-14T07:31:24;11.40;;;7.47;;
23506;SDS011;11930;53.076;18.250;2023-06-14T07:33:50;13.02;;;7.63;;
23506;SDS011;11930;53.076;18.250;2023-06-14T07:36:16;10.35;;;7.38;;
23506;SDS011;11930;53.076;18.250;2023-06-14T07:38:43;14.65;;;7.10;;
23506;SDS011;11930;53.076;18.250;2023-06-14T07:41:09;10.77;;;6.63;;
23506;SDS011;11930;53.076;18.250;2023-06-14T07:43:35;11.63;;;6.50;;
23506;SDS011;11930;53.076;18.250;2023-06-14T07:46:02;18.40;;;10.85;;
23506;SDS011;11930;53.076;18.250;2023-06-14T07:48:28;11.63;;;8.70;;
23506;SDS011;11930;53.076;18.250;2023-06-14T07:50:54;9.55;;;5.95;;
23506;SDS011;11930;53.076;18.250;2023-06-14T07:53:20;13.55;;;6.93;;
23506;SDS011;11930;53.076;18.250;2023-06-14T07:55:46;12.13;;;6.22;;
23506;SDS011;11930;53.076;18.250;2023-06-14T07:58:14;10.68;;;6.63;;
23506;SDS011;11930;53.076;18.250;2023-06-14T08:00:40;10.57;;;6.13;;
23506;SDS011;11930;53.076;18.250;2023-06-14T08:03:06;12.18;;;6.00;;
23506;SDS011;11930;53.076;18.250;2023-06-14T08:05:32;11.77;;;6.88;;
23506;SDS011;11930;53.076;18.250;2023-06-14T08:07:58;8.75;;;6.63;;
23506;SDS011;11930;53.076;18.250;2023-06-14T08:10:24;9.70;;;7.03;;
23506;SDS011;11930;53.076;18.250;2023-06-14T08:12:50;11.52;;;5.57;;
23506;SDS011;11930;53.076;18.250;2023-06-14T08:15:17;11.68;;;6.40;;
23506;SDS011;11930;53.076;18.250;2023-06-14T08:17:43;27.92;;;17.27;;
23506;SDS011;11930;53.076;18.250;2023-06-14T08:20:11;12.85;;;8.68;;
23506;SDS011;11930;53.076;18.250;2023-06-14T08:22:37;13.02;;;6.38;;
23506;SDS011;11930;53.076;18.250;2023-06-14T08:25:05;13.50;;;5.47;;
23506;SDS011;11930;53.076;18.250;2023-06-14T08:27:32;9.85;;;5.80;;
23506;SDS011;11930;53.076;18.250;2023-06-14T08:29:58;9.02;;;5.55;;
23506;SDS011;11930;53.076;18.250;2023-06-14T08:32:24;9.60;;;5.47;;
23506;SDS011;11930;53.076;18.250;2023-06-14T08:34:50;9.82;;;5.45;;
23506;SDS011;11930;53.076;18.250;2023-06-14T08:37:16;12.10;;;5.78;;
23506;SDS011;11930;53.076;18.250;2023-06-14T08:39:42;10.60;;;5.00;;
23506;SDS011;11930;53.076;18.250;2023-06-14T08:42:09;11.75;;;5.10;;
23506;SDS011;11930;53.076;18.250;2023-06-14T08:44:36;7.70;;;4.53;;
23506;SDS011;11930;53.076;18.250;2023-06-14T08:47:02;8.57;;;4.95;;
23506;SDS011;11930;53.076;18.250;2023-06-14T08:49:31;11.13;;;5.82;;
23506;SDS011;11930;53.076;18.250;2023-06-14T08:51:58;12.98;;;6.97;;
23506;SDS011;11930;53.076;18.250;2023-06-14T08:54:29;11.27;;;5.15;;
23506;SDS011;11930;53.076;18.250;2023-06-14T08:56:56;9.27;;;4.65;;
23506;SDS011;11930;53.076;18.250;2023-06-14T08:59:24;8.98;;;4.10;;
23506;SDS011;11930;53.076;18.250;2023-06-14T09:01:53;12.10;;;4.78;;
23506;SDS011;11930;53.076;18.250;2023-06-14T09:04:20;11.82;;;4.97;;
23506;SDS011;11930;53.076;18.250;2023-06-14T09:06:55;8.48;;;4.75;;
23506;SDS011;11930;53.076;18.250;2023-06-14T09:09:22;9.68;;;4.68;;
23506;SDS011;11930;53.076;18.250;2023-06-14T09:11:49;8.55;;;4.70;;
23506;SDS011;11930;53.076;18.250;2023-06-14T09:14:17;10.20;;;4.88;;
23506;SDS011;11930;53.076;18.250;2023-06-14T09:16:43;10.82;;;4.55;;
23506;SDS011;11930;53.076;18.250;2023-06-14T09:19:13;9.15;;;4.95;;
23506;SDS011;11930;53.076;18.250;2023-06-14T09:21:47;8.77;;;4.90;;
23506;SDS011;11930;53.076;18.250;2023-06-14T09:24:14;9.98;;;6.32;;
23506;SDS011;11930;53.076;18.250;2023-06-14T09:26:40;12.63;;;7.07;;
23506;SDS011;11930;53.076;18.250;2023-06-14T09:29:06;9.43;;;5.57;;
23506;SDS011;11930;53.076;18.250;2023-06-14T09:31:32;8.57;;;5.53;;
23506;SDS011;11930;53.076;18.250;2023-06-14T09:33:58;9.70;;;5.03;;
23506;SDS011;11930;53.076;18.250;2023-06-14T09:36:27;9.95;;;5.20;;
23506;SDS011;11930;53.076;18.250;2023-06-14T09:38:55;7.75;;;5.00;;
23506;SDS011;11930;53.076;18.250;2023-06-14T09:41:38;7.50;;;4.43;;
23506;SDS011;11930;53.076;18.250;2023-06-14T09:44:06;9.68;;;4.53;;
23506;SDS011;11930;53.076;18.250;2023-06-14T09:46:34;8.65;;;4.22;;
23506;SDS011;11930;53.076;18.250;2023-06-14T09:49:02;7.57;;;4.55;;
23506;SDS011;11930;53.076;18.250;2023-06-14T09:51:30;11.35;;;5.30;;
23506;SDS011;11930;53.076;18.250;2023-06-14T09:54:00;8.10;;;4.32;;
23506;SDS011;11930;53.076;18.250;2023-06-14T09:56:41;8.68;;;4.78;;
23506;SDS011;11930;53.076;18.250;2023-06-14T09:59:10;6.90;;;4.70;;
23506;SDS011;11930;53.076;18.250;2023-06-14T10:01:41;7.55;;;4.20;;
23506;SDS011;11930;53.076;18.250;2023-06-14T10:04:09;7.78;;;4.57;;
23506;SDS011;11930;53.076;18.250;2023-06-14T10:06:36;12.38;;;7.40;;
23506;SDS011;11930;53.076;18.250;2023-06-14T10:09:04;8.23;;;4.80;;
23506;SDS011;11930;53.076;18.250;2023-06-14T10:11:34;10.10;;;4.65;;
23506;SDS011;11930;53.076;18.250;2023-06-14T10:14:03;7.30;;;5.40;;
23506;SDS011;11930;53.076;18.250;2023-06-14T10:16:32;7.60;;;5.13;;
23506;SDS011;11930;53.076;18.250;2023-06-14T10:24:19;9.18;;;4.90;;
23506;SDS011;11930;53.076;18.250;2023-06-14T10:26:57;10.75;;;5.78;;
23506;SDS011;11930;53.076;18.250;2023-06-14T10:29:25;7.82;;;4.78;;
23506;SDS011;11930;53.076;18.250;2023-06-14T10:31:55;9.95;;;5.05;;
23506;SDS011;11930;53.076;18.250;2023-06-14T10:34:26;8.30;;;5.28;;
23506;SDS011;11930;53.076;18.250;2023-06-14T10:39:39;9.65;;;4.95;;
23506;SDS011;11930;53.076;18.250;2023-06-14T10:42:06;8.60;;;4.95;;
23506;SDS011;11930;53.076;18.250;2023-06-14T10:44:37;12.55;;;6.03;;
23506;SDS011;11930;53.076;18.250;2023-06-14T10:47:09;11.57;;;5.88;;
23506;SDS011;11930;53.076;18.250;2023-06-14T10:49:46;10.30;;;5.93;;
23506;SDS011;11930;53.076;18.250;2023-06-14T10:52:16;8.48;;;4.95;;
23506;SDS011;11930;53.076;18.250;2023-06-14T10:55:03;10.45;;;5.28;;
23506;SDS011;11930;53.076;18.250;2023-06-14T10:57:38;9.02;;;4.95;;
23506;SDS011;11930;53.076;18.250;2023-06-14T11:00:09;7.43;;;4.80;;
23506;SDS011;11930;53.076;18.250;2023-06-14T11:11:16;7.15;;;4.20;;
23506;SDS011;11930;53.076;18.250;2023-06-14T11:13:44;8.05;;;4.32;;
23506;SDS011;11930;53.076;18.250;2023-06-14T11:16:12;8.88;;;4.97;;
23506;SDS011;11930;53.076;18.250;2023-06-14T11:18:42;7.45;;;4.28;;
23506;SDS011;11930;53.076;18.250;2023-06-14T11:21:10;11.10;;;5.15;;
23506;SDS011;11930;53.076;18.250;2023-06-14T11:23:36;7.80;;;4.03;;
23506;SDS011;11930;53.076;18.250;2023-06-14T11:26:03;7.57;;;3.40;;
23506;SDS011;11930;53.076;18.250;2023-06-14T11:28:36;6.03;;;3.50;;
23506;SDS011;11930;53.076;18.250;2023-06-14T11:31:03;7.53;;;3.60;;
23506;SDS011;11930;53.076;18.250;2023-06-14T11:33:30;6.28;;;3.30;;
23506;SDS011;11930;53.076;18.250;2023-06-14T11:35:56;6.95;;;3.28;;
23506;SDS011;11930;53.076;18.250;2023-06-14T11:38:22;5.90;;;3.53;;
23506;SDS011;11930;53.076;18.250;2023-06-14T11:40:48;5.30;;;2.72;;
23506;SDS011;11930;53.076;18.250;2023-06-14T11:43:14;6.15;;;3.83;;
23506;SDS011;11930;53.076;18.250;2023-06-14T11:45:40;5.43;;;2.88;;
23506;SDS011;11930;53.076;18.250;2023-06-14T11:48:06;5.63;;;3.30;;
23506;SDS011;11930;53.076;18.250;2023-06-14T11:50:32;7.65;;;3.38;;
23506;SDS011;11930;53.076;18.250;2023-06-14T11:53:03;9.30;;;4.28;;
23506;SDS011;11930;53.076;18.250;2023-06-14T11:55:38;9.68;;;4.20;;
23506;SDS011;11930;53.076;18.250;2023-06-14T11:58:06;8.27;;;5.47;;
23506;SDS011;11930;53.076;18.250;2023-06-14T12:00:32;8.35;;;4.60;;
23506;SDS011;11930;53.076;18.250;2023-06-14T12:03:00;7.97;;;4.45;;
23506;SDS011;11930;53.076;18.250;2023-06-14T12:05:27;8.40;;;3.95;;
23506;SDS011;11930;53.076;18.250;2023-06-14T12:08:02;8.43;;;3.35;;
23506;SDS011;11930;53.076;18.250;2023-06-14T12:10:33;14.00;;;4.20;;
23506;SDS011;11930;53.076;18.250;2023-06-14T12:13:06;10.40;;;4.15;;
23506;SDS011;11930;53.076;18.250;2023-06-14T12:15:32;7.60;;;4.20;;
23506;SDS011;11930;53.076;18.250;2023-06-14T12:17:59;7.45;;;3.75;;
23506;SDS011;11930;53.076;18.250;2023-06-14T12:20:29;4.80;;;3.38;;
23506;SDS011;11930;53.076;18.250;2023-06-14T12:22:57;7.63;;;3.67;;
23506;SDS011;11930;53.076;18.250;2023-06-14T12:25:26;11.68;;;4.35;;
23506;SDS011;11930;53.076;18.250;2023-06-14T12:27:58;4.68;;;2.90;;
23506;SDS011;11930;53.076;18.250;2023-06-14T12:30:25;7.38;;;3.13;;
23506;SDS011;11930;53.076;18.250;2023-06-14T12:32:51;5.32;;;2.83;;
23506;SDS011;11930;53.076;18.250;2023-06-14T12:35:18;7.57;;;3.20;;
23506;SDS011;11930;53.076;18.250;2023-06-14T12:37:44;4.43;;;2.97;;
23506;SDS011;11930;53.076;18.250;2023-06-14T12:40:11;5.53;;;3.25;;
23506;SDS011;11930;53.076;18.250;2023-06-14T12:42:37;6.78;;;3.50;;
23506;SDS011;11930;53.076;18.250;2023-06-14T12:45:04;5.85;;;3.80;;
23506;SDS011;11930;53.076;18.250;2023-06-14T12:47:30;10.27;;;4.30;;
23506;SDS011;11930;53.076;18.250;2023-06-14T12:49:56;9.80;;;4.93;;
23506;SDS011;11930;53.076;18.250;2023-06-14T12:52:22;11.70;;;4.50;;
23506;SDS011;11930;53.076;18.250;2023-06-14T12:54:49;7.93;;;4.82;;
23506;SDS011;11930;53.076;18.250;2023-06-14T12:57:15;9.10;;;4.70;;
23506;SDS011;11930;53.076;18.250;2023-06-14T12:59:41;8.60;;;4.95;;
23506;SDS011;11930;53.076;18.250;2023-06-14T13:02:14;9.52;;;5.20;;
23506;SDS011;11930;53.076;18.250;2023-06-14T13:04:42;12.88;;;4.40;;
23506;SDS011;11930;53.076;18.250;2023-06-14T13:07:08;12.15;;;4.80;;
23506;SDS011;11930;53.076;18.250;2023-06-14T13:09:36;9.18;;;4.70;;
23506;SDS011;11930;53.076;18.250;2023-06-14T13:12:02;10.75;;;4.82;;
23506;SDS011;11930;53.076;18.250;2023-06-14T13:14:29;12.52;;;4.32;;
23506;SDS011;11930;53.076;18.250;2023-06-14T13:16:55;7.30;;;4.20;;
23506;SDS011;11930;53.076;18.250;2023-06-14T13:19:21;7.90;;;3.97;;
23506;SDS011;11930;53.076;18.250;2023-06-14T13:21:47;10.82;;;4.68;;
23506;SDS011;11930;53.076;18.250;2023-06-14T13:24:14;9.73;;;4.38;;
23506;SDS011;11930;53.076;18.250;2023-06-14T13:26:40;6.35;;;3.80;;
23506;SDS011;11930;53.076;18.250;2023-06-14T13:29:06;6.53;;;4.18;;
23506;SDS011;11930;53.076;18.250;2023-06-14T13:31:32;8.77;;;4.13;;
23506;SDS011;11930;53.076;18.250;2023-06-14T13:33:59;8.82;;;4.07;;
23506;SDS011;11930;53.076;18.250;2023-06-14T13:36:25;8.57;;;4.00;;
23506;SDS011;11930;53.076;18.250;2023-06-14T13:38:51;8.20;;;3.50;;
23506;SDS011;11930;53.076;18.250;2023-06-14T13:41:18;7.65;;;3.90;;
23506;SDS011;11930;53.076;18.250;2023-06-14T13:43:44;9.05;;;3.70;;
23506;SDS011;11930;53.076;18.250;2023-06-14T13:46:10;7.43;;;3.85;;
23506;SDS011;11930;53.076;18.250;2023-06-14T13:48:36;5.97;;;3.03;;
23506;SDS011;11930;53.076;18.250;2023-06-14T13:51:02;8.20;;;3.70;;
23506;SDS011;11930;53.076;18.250;2023-06-14T13:53:30;11.13;;;4.20;;
23506;SDS011;11930;53.076;18.250;2023-06-14T13:55:56;5.57;;;2.85;;
23506;SDS011;11930;53.076;18.250;2023-06-14T13:58:22;5.15;;;2.78;;
23506;SDS011;11930;53.076;18.250;2023-06-14T14:00:49;4.30;;;2.30;;
23506;SDS011;11930;53.076;18.250;2023-06-14T14:03:16;4.40;;;2.38;;
23506;SDS011;11930;53.076;18.250;2023-06-14T14:05:42;8.38;;;2.78;;
23506;SDS011;11930;53.076;18.250;2023-06-14T14:08:08;9.77;;;2.70;;
23506;SDS011;11930;53.076;18.250;2023-06-14T14:10:34;6.18;;;2.00;;
23506;SDS011;11930;53.076;18.250;2023-06-14T14:13:00;5.85;;;2.10;;
23506;SDS011;11930;53.076;18.250;2023-06-14T14:15:27;4.22;;;2.15;;
23506;SDS011;11930;53.076;18.250;2023-06-14T14:17:55;4.07;;;2.63;;
23506;SDS011;11930;53.076;18.250;2023-06-14T14:20:22;4.78;;;2.40;;
23506;SDS011;11930;53.076;18.250;2023-06-14T14:22:49;5.60;;;2.55;;
23506;SDS011;11930;53.076;18.250;2023-06-14T14:25:15;4.32;;;2.58;;
23506;SDS011;11930;53.076;18.250;2023-06-14T14:27:41;4.50;;;2.53;;
23506;SDS011;11930;53.076;18.250;2023-06-14T14:30:07;4.85;;;2.67;;
23506;SDS011;11930;53.076;18.250;2023-06-14T14:32:34;6.78;;;2.70;;
23506;SDS011;11930;53.076;18.250;2023-06-14T14:35:02;5.63;;;3.00;;
23506;SDS011;11930;53.076;18.250;2023-06-14T14:37:28;5.63;;;2.78;;
23506;SDS011;11930;53.076;18.250;2023-06-14T14:39:54;4.43;;;2.80;;
23506;SDS011;11930;53.076;18.250;2023-06-14T14:42:21;5.10;;;2.80;;
23506;SDS011;11930;53.076;18.250;2023-06-14T14:44:47;6.75;;;2.70;;
23506;SDS011;11930;53.076;18.250;2023-06-14T14:47:13;3.90;;;2.80;;
23506;SDS011;11930;53.076;18.250;2023-06-14T14:49:39;8.05;;;2.90;;
23506;SDS011;11930;53.076;18.250;2023-06-14T14:52:05;5.25;;;2.95;;